Time;durP1;ratioP1;P1;durP2;ratioP2;P2;SDS_P1;SDS_P2;PMS_P1;PMS_P2;Temp;Humidity;BMP_temperature;BMP_pressure;BME280_temperature;BME280_humidity;BME280_pressure;Samples;Min_cycle;Max_cycle;Signal;HPM_P1;HPM_P2
2022/12/16 00:01:38;;;;;;;24.40;16.37;;;6.00;84.10;5.70;94787.00;;;;5096654;28;20179;-82
2022/12/16 00:04:06;;;;;;;26.23;16.57;;;6.00;84.10;5.70;94783.00;;;;5095661;28;20203;-82
2022/12/16 00:06:34;;;;;;;24.27;15.50;;;6.00;84.10;5.70;94793.00;;;;5092257;28;20591;-84
2022/12/16 00:09:02;;;;;;;25.27;16.63;;;6.00;84.10;5.70;94795.00;;;;5075446;28;20223;-82
2022/12/16 00:11:31;;;;;;;25.03;15.90;;;6.00;84.10;5.80;94797.00;;;;5080573;28;20837;-84
2022/12/16 00:14:00;;;;;;;26.00;16.90;;;6.00;84.10;5.80;94794.00;;;;5076365;28;20199;-84
2022/12/16 00:16:27;;;;;;;24.30;15.33;;;6.10;84.10;5.80;94805.00;;;;5076768;28;20309;-83
2022/12/16 00:18:54;;;;;;;26.93;17.17;;;6.10;84.20;5.80;94811.00;;;;5077299;28;20231;-84
2022/12/16 00:21:27;;;;;;;23.23;15.47;;;6.10;84.20;5.80;94807.00;;;;5075745;28;20210;-84
2022/12/16 00:23:55;;;;;;;24.93;15.73;;;6.10;84.20;5.80;94813.00;;;;5075090;28;20210;-84
2022/12/16 00:26:23;;;;;;;26.67;17.07;;;6.10;84.20;5.80;94813.00;;;;5080637;28;20207;-84
2022/12/16 00:28:50;;;;;;;22.93;14.70;;;6.10;84.10;5.90;94819.00;;;;5077997;28;20228;-85
2022/12/16 00:31:19;;;;;;;24.17;16.23;;;6.10;84.20;5.90;94818.00;;;;5076359;28;20716;-81
2022/12/16 00:33:47;;;;;;;22.57;14.60;;;6.10;84.20;5.90;94816.00;;;;5085491;28;20647;-82
2022/12/16 00:36:14;;;;;;;26.10;16.07;;;6.10;84.30;5.90;94815.00;;;;5079149;28;20265;-84
2022/12/16 00:38:41;;;;;;;27.37;15.77;;;6.10;84.20;5.90;94817.00;;;;5077374;28;20224;-84
2022/12/16 00:41:09;;;;;;;23.70;15.10;;;6.20;84.30;5.90;94813.00;;;;5077210;28;20738;-84
2022/12/16 00:43:36;;;;;;;22.53;15.77;;;6.20;84.10;5.90;94819.00;;;;5076394;28;20242;-85
2022/12/16 00:46:06;;;;;;;25.17;14.47;;;6.20;84.10;5.90;94810.00;;;;5073731;28;20203;-84
2022/12/16 00:48:35;;;;;;;23.20;15.20;;;6.20;84.00;5.90;94822.00;;;;5077650;28;20220;-84
2022/12/16 00:51:02;;;;;;;24.07;14.77;;;6.20;84.00;5.90;94824.00;;;;5074771;28;20203;-84
2022/12/16 00:53:30;;;;;;;24.10;14.63;;;6.20;84.00;5.90;94829.00;;;;5076195;28;20227;-84
2022/12/16 00:56:07;;;;;;;23.60;15.03;;;6.20;84.00;5.90;94827.00;;;;5075269;28;20224;-83
2022/12/16 00:58:35;;;;;;;22.63;15.07;;;6.20;83.90;5.90;94833.00;;;;5076521;28;20353;-84
2022/12/16 01:01:03;;;;;;;22.97;14.30;;;6.10;83.80;5.90;94822.00;;;;5075684;28;20260;-83
2022/12/16 01:03:30;;;;;;;23.50;15.27;;;6.10;83.80;5.90;94836.00;;;;5076891;28;20230;-83
2022/12/16 01:05:59;;;;;;;22.77;15.37;;;6.10;83.60;5.80;94836.00;;;;5075539;28;20276;-83
2022/12/16 01:08:26;;;;;;;22.53;15.00;;;6.10;83.50;5.80;94835.00;;;;5075064;28;21051;-84
2022/12/16 01:10:56;;;;;;;19.97;13.83;;;6.10;83.40;5.70;94838.00;;;;5076122;28;20195;-82
2022/12/16 01:13:25;;;;;;;21.93;14.97;;;6.00;83.40;5.70;94834.00;;;;5075579;28;20245;-83
2022/12/16 01:15:54;;;;;;;23.43;15.13;;;6.00;83.50;5.70;94845.00;;;;5075972;28;20215;-83
2022/12/16 01:18:21;;;;;;;22.13;14.77;;;6.00;83.50;5.70;94843.00;;;;5074146;28;20233;-84
2022/12/16 01:20:49;;;;;;;24.47;15.20;;;6.00;83.50;5.70;94845.00;;;;5076302;28;20202;-83
2022/12/16 01:23:18;;;;;;;23.43;14.87;;;5.90;83.50;5.60;94854.00;;;;5073437;28;20302;-83
2022/12/16 01:25:45;;;;;;;22.80;14.33;;;5.90;83.40;5.60;94859.00;;;;5074824;28;20249;-83
2022/12/16 01:28:12;;;;;;;22.17;14.17;;;5.90;83.40;5.60;94852.00;;;;5077036;28;20651;-82
2022/12/16 01:30:40;;;;;;;23.00;14.87;;;5.90;83.40;5.60;94852.00;;;;5074730;28;20288;-82
2022/12/16 01:33:07;;;;;;;21.53;15.47;;;5.90;83.50;5.60;94850.00;;;;5074799;28;20207;-83
2022/12/16 01:35:34;;;;;;;21.13;14.27;;;5.90;83.70;5.60;94860.00;;;;5075673;28;20631;-83
2022/12/16 01:38:02;;;;;;;19.87;13.83;;;5.80;83.60;5.60;94862.00;;;;5074310;28;20223;-83
2022/12/16 01:40:31;;;;;;;22.00;15.10;;;5.80;83.60;5.50;94859.00;;;;5076863;28;20258;-83
2022/12/16 01:42:58;;;;;;;20.27;13.93;;;5.80;83.60;5.50;94866.00;;;;5073070;28;20204;-84
2022/12/16 01:45:33;;;;;;;21.33;14.37;;;5.80;83.60;5.50;94863.00;;;;5072897;28;20662;-83
2022/12/16 01:48:12;;;;;;;20.93;14.20;;;5.80;83.50;5.50;94862.00;;;;5073655;28;20222;-83
2022/12/16 01:50:39;;;;;;;23.67;14.83;;;5.80;84.20;5.50;94856.00;;;;5074683;28;20211;-84
2022/12/16 01:53:07;;;;;;;20.97;14.53;;;5.80;83.50;5.50;94854.00;;;;5075330;28;20203;-83
2022/12/16 01:55:42;;;;;;;25.40;15.63;;;5.80;84.30;5.50;94850.00;;;;5074237;28;20234;-83
2022/12/16 01:58:15;;;;;;;22.20;14.63;;;5.80;83.40;5.40;94849.00;;;;5075999;28;20215;-83
2022/12/16 02:00:43;;;;;;;25.27;15.77;;;5.80;83.20;5.40;94862.00;;;;5075151;28;20211;-84
2022/12/16 02:03:11;;;;;;;24.27;15.87;;;5.70;83.00;5.40;94863.00;;;;5073578;28;20212;-83
2022/12/16 02:05:42;;;;;;;23.73;15.67;;;5.70;82.90;5.30;94861.00;;;;5073319;28;20207;-84
2022/12/16 02:08:14;;;;;;;23.03;15.40;;;5.70;82.90;5.30;94860.00;;;;5074690;28;20216;-84
2022/12/16 02:11:09;;;;;;;21.60;14.73;;;5.70;82.70;5.20;94863.00;;;;5074935;28;20204;-84
2022/12/16 02:13:55;;;;;;;23.13;15.37;;;5.60;82.40;5.20;94866.00;;;;5074497;28;20230;-84
2022/12/16 02:16:36;;;;;;;26.00;16.23;;;5.60;82.40;5.10;94874.00;;;;5056647;28;20912;-84
2022/12/16 02:19:32;;;;;;;25.00;16.40;;;5.50;82.40;5.10;94880.00;;;;5076073;28;20235;-84
2022/12/16 02:22:20;;;;;;;24.23;15.23;;;5.50;82.60;5.10;94871.00;;;;5078132;28;20255;-84
2022/12/16 02:25:18;;;;;;;23.50;15.20;;;5.50;82.70;5.00;94877.00;;;;5077628;28;20191;-83
2022/12/16 02:28:10;;;;;;;24.27;16.07;;;5.50;82.70;5.00;94865.00;;;;5080340;28;20219;-84
2022/12/16 02:31:16;;;;;;;24.97;16.10;;;5.40;82.60;5.00;94874.00;;;;5080231;28;20206;-84
2022/12/16 02:34:14;;;;;;;26.73;16.33;;;5.40;82.70;5.00;94871.00;;;;5076020;28;20282;-85
2022/12/16 02:37:07;;;;;;;26.60;16.83;;;5.40;82.80;4.90;94878.00;;;;5070365;28;20223;-84
2022/12/16 02:39:39;;;;;;;26.30;15.47;;;5.40;82.90;5.00;94879.00;;;;5077934;28;20200;-83
2022/12/16 02:42:20;;;;;;;25.90;16.27;;;5.40;83.00;5.00;94880.00;;;;5076397;28;20206;-82
2022/12/16 02:45:00;;;;;;;25.17;16.10;;;5.30;82.90;4.90;94878.00;;;;5078116;28;20233;-84
2022/12/16 02:47:30;;;;;;;25.93;16.33;;;5.30;82.80;4.90;94889.00;;;;5077147;28;20238;-83
2022/12/16 02:49:58;;;;;;;25.77;16.73;;;5.30;83.00;4.90;94890.00;;;;5078800;28;20200;-84
2022/12/16 02:52:29;;;;;;;27.77;16.97;;;5.30;83.00;4.90;94894.00;;;;5078801;28;20208;-84
2022/12/16 02:55:01;;;;;;;27.67;17.27;;;5.30;83.10;4.90;94893.00;;;;5077440;28;20834;-83
2022/12/16 02:58:02;;;;;;;25.23;16.33;;;5.30;83.20;4.90;94891.00;;;;5079199;28;20314;-83
2022/12/16 03:00:43;;;;;;;26.23;16.77;;;5.30;83.10;4.90;94884.00;;;;5078073;28;20239;-83
2022/12/16 03:03:20;;;;;;;27.70;16.83;;;5.30;83.10;4.90;94886.00;;;;5076547;28;20200;-83
2022/12/16 03:05:51;;;;;;;28.60;16.90;;;5.30;83.20;4.90;94903.00;;;;5077936;28;20195;-84
2022/12/16 03:08:26;;;;;;;28.27;17.37;;;5.30;83.20;4.90;94907.00;;;;5078084;28;20759;-84
2022/12/16 03:11:01;;;;;;;29.03;17.20;;;5.30;83.10;4.90;94913.00;;;;5076567;28;20199;-84
2022/12/16 03:13:35;;;;;;;29.00;18.17;;;5.30;83.00;4.90;94918.00;;;;5074363;28;20199;-84
2022/12/16 03:16:06;;;;;;;30.00;17.57;;;5.30;82.70;4.90;94915.00;;;;5077536;28;20573;-83
2022/12/16 03:18:40;;;;;;;28.93;17.47;;;5.20;82.50;4.80;94911.00;;;;5077169;28;20231;-84
2022/12/16 03:21:09;;;;;;;30.87;18.47;;;5.20;82.70;4.80;94908.00;;;;5074845;28;20237;-84
2022/12/16 03:23:44;;;;;;;31.40;18.47;;;5.20;82.80;4.80;94905.00;;;;5076564;28;20242;-84
2022/12/16 03:26:21;;;;;;;31.03;18.87;;;5.20;82.70;4.80;94912.00;;;;5078037;28;20226;-84
2022/12/16 03:28:56;;;;;;;28.63;17.23;;;5.20;82.70;4.80;94912.00;;;;5078161;28;20230;-84
2022/12/16 03:31:37;;;;;;;28.67;19.00;;;5.20;82.50;4.80;94926.00;;;;5077776;28;20441;-84
2022/12/16 03:34:16;;;;;;;36.03;20.73;;;5.20;82.30;4.80;94937.00;;;;5075377;28;21138;-85
2022/12/16 03:36:51;;;;;;;32.70;18.70;;;5.20;82.30;4.80;94928.00;;;;5078042;28;20227;-85
2022/12/16 03:39:23;;;;;;;30.47;18.57;;;5.20;82.40;4.80;94935.00;;;;5077497;28;20684;-84
2022/12/16 03:41:53;;;;;;;29.27;18.70;;;5.10;82.40;4.70;94934.00;;;;5075926;28;20469;-84
2022/12/16 03:44:24;;;;;;;33.13;19.40;;;5.10;82.30;4.70;94919.00;;;;5079674;28;20204;-84
2022/12/16 03:46:52;;;;;;;31.93;18.73;;;5.10;82.20;4.70;94921.00;;;;5075663;28;20335;-85
2022/12/16 03:49:22;;;;;;;30.80;19.13;;;5.10;82.10;4.70;94912.00;;;;5076951;28;20257;-84
2022/12/16 03:51:49;;;;;;;32.10;19.17;;;5.10;82.00;4.70;94915.00;;;;5077789;28;20275;-85
2022/12/16 03:54:17;;;;;;;33.77;20.30;;;5.10;82.10;4.70;94919.00;;;;5077665;28;20498;-85
2022/12/16 03:56:45;;;;;;;34.13;19.97;;;5.10;82.20;4.70;94928.00;;;;5076344;28;20230;-84
2022/12/16 03:59:12;;;;;;;35.47;20.43;;;5.10;82.30;4.70;94928.00;;;;5075881;28;20224;-84
2022/12/16 04:01:40;;;;;;;34.77;20.63;;;5.10;82.40;4.70;94922.00;;;;5075426;28;20196;-84
2022/12/16 04:04:07;;;;;;;34.57;20.10;;;5.10;82.30;4.70;94928.00;;;;5076684;28;20203;-85
2022/12/16 04:06:36;;;;;;;33.53;20.13;;;5.10;82.30;4.70;94925.00;;;;5075424;28;20200;-85
2022/12/16 04:09:04;;;;;;;34.40;20.20;;;5.10;82.30;4.70;94933.00;;;;5073631;28;20223;-85
2022/12/16 04:25:30;;;;;;;33.80;20.67;;;5.10;82.20;4.60;94939.00;;;;5074405;28;20214;-85
2022/12/16 04:27:58;;;;;;;34.23;19.43;;;5.00;81.80;4.60;94956.00;;;;5075816;28;20212;-85
2022/12/16 04:30:27;;;;;;;36.43;20.43;;;5.00;81.70;4.60;94963.00;;;;5074912;28;20217;-85
